createdAt,value
2023-04-11T00:00:28.377Z,8.62
2023-04-11T00:03:30.247Z,8.60
2023-04-11T00:06:33.811Z,8.58
2023-04-11T00:09:35.737Z,8.57
2023-04-11T00:12:37.351Z,8.56
2023-04-11T00:15:39.457Z,8.55
2023-04-11T00:18:44.882Z,8.53
2023-04-11T00:21:46.504Z,8.50
2023-04-11T00:24:48.031Z,8.49
2023-04-11T00:27:49.796Z,8.47
2023-04-11T00:30:51.477Z,8.47
2023-04-11T00:33:53.097Z,8.47
2023-04-11T00:36:54.996Z,8.46
2023-04-11T00:39:56.622Z,8.46
2023-04-11T00:42:58.238Z,8.46
2023-04-11T00:46:01.026Z,8.43
2023-04-11T00:49:03.018Z,8.41
2023-04-11T00:52:05.132Z,8.37
2023-04-11T00:55:07.885Z,8.31
2023-04-11T00:58:09.561Z,8.27
2023-04-11T01:01:11.224Z,8.23
2023-04-11T01:04:13.607Z,8.18
2023-04-11T01:07:16.436Z,8.17
2023-04-11T01:10:19.260Z,8.14
2023-04-11T01:13:21.019Z,8.13
2023-04-11T01:16:22.597Z,8.11
2023-04-11T01:19:26.945Z,8.08
2023-04-11T01:22:30.353Z,8.09
2023-04-11T01:25:32.036Z,8.08
2023-04-11T01:28:33.596Z,8.06
2023-04-11T01:31:35.463Z,7.90
2023-04-11T01:34:40.311Z,7.66
2023-04-11T01:37:41.998Z,7.46
2023-04-11T01:40:45.646Z,7.29
2023-04-11T01:43:47.532Z,7.16
2023-04-11T01:46:49.116Z,7.06
2023-04-11T01:49:50.825Z,7.00
2023-04-11T01:52:54.816Z,6.96
2023-04-11T01:55:56.374Z,6.93
2023-04-11T01:58:59.314Z,6.92
2023-04-11T02:02:01.151Z,6.87
2023-04-11T02:05:03.545Z,6.83
2023-04-11T02:08:05.521Z,6.82
2023-04-11T02:11:08.183Z,6.82
2023-04-11T02:14:09.903Z,6.79
2023-04-11T02:17:12.252Z,6.78
2023-04-11T02:20:14.625Z,6.78
2023-04-11T02:23:16.319Z,6.76
2023-04-11T02:26:17.920Z,6.76
2023-04-11T02:29:19.511Z,6.76
2023-04-11T02:32:21.177Z,6.74
2023-04-11T02:35:22.987Z,6.73
2023-04-11T02:38:24.535Z,6.71
2023-04-11T02:41:26.300Z,6.67
2023-04-11T02:44:29.396Z,6.62
2023-04-11T02:47:31.202Z,6.56
2023-04-11T02:50:32.805Z,6.51
2023-04-11T02:53:34.358Z,6.46
2023-04-11T02:56:38.865Z,6.37
2023-04-11T02:59:40.726Z,6.31
2023-04-11T03:02:43.542Z,6.25
2023-04-11T03:05:47.006Z,6.21
2023-04-11T03:08:50.032Z,6.19
2023-04-11T03:11:51.630Z,6.13
2023-04-11T03:14:53.346Z,6.05
2023-04-11T03:17:54.947Z,5.97
2023-04-11T03:20:56.575Z,5.91
2023-04-11T03:23:58.257Z,5.85
2023-04-11T03:26:59.789Z,5.79
2023-04-11T03:30:01.480Z,5.73
2023-04-11T03:33:03.072Z,5.64
2023-04-11T03:36:05.829Z,5.56
2023-04-11T03:39:07.502Z,5.49
2023-04-11T03:42:09.095Z,5.43
2023-04-11T03:45:10.776Z,5.39
2023-04-11T03:48:12.526Z,5.36
2023-04-11T03:51:14.113Z,5.32
2023-04-11T03:54:15.946Z,5.29
2023-04-11T03:57:17.476Z,5.26
2023-04-11T04:00:20.795Z,5.24
2023-04-11T04:03:22.526Z,5.24
2023-04-11T04:06:24.315Z,5.25
2023-04-11T04:09:25.934Z,5.23
2023-04-11T04:12:27.492Z,5.21
2023-04-11T04:15:29.008Z,5.21
2023-04-11T04:18:30.570Z,5.23
2023-04-11T04:21:32.569Z,5.21
2023-04-11T04:24:38.421Z,5.21
2023-04-11T04:27:44.480Z,5.22
2023-04-11T04:30:54.393Z,5.25
2023-04-11T04:33:58.724Z,5.23
2023-04-11T04:37:02.088Z,5.23
2023-04-11T04:40:12.187Z,5.23
2023-04-11T04:43:20.167Z,5.21
2023-04-11T04:46:23.244Z,5.26
2023-04-11T04:49:24.843Z,5.57
2023-04-11T04:52:27.659Z,5.64
2023-04-11T04:55:30.309Z,5.62
2023-04-11T04:58:31.855Z,5.59
2023-04-11T05:01:33.531Z,5.56
2023-04-11T05:04:35.406Z,5.51
2023-04-11T05:07:36.957Z,5.48
2023-04-11T05:10:38.965Z,5.44
2023-04-11T05:13:41.130Z,5.43
2023-04-11T05:16:44.172Z,5.41
2023-04-11T05:19:46.647Z,5.40
2023-04-11T05:22:50.310Z,5.39
2023-04-11T05:25:51.894Z,5.38
2023-04-11T05:28:53.466Z,5.36
2023-04-11T05:31:54.988Z,5.35
2023-04-11T05:34:59.252Z,5.34
2023-04-11T05:38:01.280Z,5.35
2023-04-11T05:41:02.864Z,5.34
2023-04-11T05:44:04.434Z,5.34
2023-04-11T05:47:06.175Z,5.34
2023-04-11T05:50:08.531Z,5.36
2023-04-11T05:53:10.092Z,5.33
2023-04-11T05:56:12.940Z,5.32
2023-04-11T05:59:14.561Z,5.32
2023-04-11T06:02:16.802Z,5.31
2023-04-11T06:05:20.850Z,5.30
2023-04-11T06:08:23.028Z,5.31
2023-04-11T06:11:27.210Z,5.31
2023-04-11T06:14:28.767Z,5.33
2023-04-11T06:17:30.657Z,5.34
2023-04-11T06:20:32.233Z,5.35
2023-04-11T06:23:33.778Z,5.38
2023-04-11T06:26:35.396Z,5.42
2023-04-11T06:29:41.493Z,5.45
2023-04-11T06:32:43.250Z,5.46
2023-04-11T06:35:44.822Z,5.50
2023-04-11T06:38:46.409Z,5.52
2023-04-11T06:41:48.288Z,5.54
2023-04-11T06:44:50.356Z,5.57
2023-04-11T06:47:52.124Z,5.60
2023-04-11T06:50:54.166Z,5.62
2023-04-11T06:53:55.936Z,5.62
2023-04-11T06:56:58.920Z,5.63
2023-04-11T07:00:01.314Z,5.64
2023-04-11T07:03:07.839Z,5.65
2023-04-11T07:06:09.608Z,5.68
2023-04-11T07:09:12.624Z,5.71
2023-04-11T07:12:14.172Z,5.73
2023-04-11T07:15:16.041Z,5.78
2023-04-11T07:18:17.618Z,5.86
2023-04-11T07:21:19.212Z,6.02
2023-04-11T07:24:21.195Z,6.19
2023-04-11T07:27:23.458Z,6.28
2023-04-11T07:30:25.148Z,6.33
2023-04-11T07:33:27.308Z,6.37
2023-04-11T07:36:28.884Z,6.40
2023-04-11T07:39:30.428Z,6.46
2023-04-11T07:42:32.019Z,6.49
2023-04-11T07:45:34.229Z,6.52
2023-04-11T07:48:35.907Z,6.54
2023-04-11T07:51:37.554Z,6.52
2023-04-11T07:54:39.216Z,6.48
2023-04-11T07:57:40.784Z,6.42
2023-04-11T08:00:43.249Z,6.43
2023-04-11T08:03:45.289Z,6.42
2023-04-11T08:06:47.112Z,6.41
2023-04-11T08:09:48.655Z,6.39
2023-04-11T08:12:50.653Z,6.34
2023-04-11T08:15:52.236Z,6.30
2023-04-11T08:18:53.767Z,6.25
2023-04-11T08:21:55.447Z,6.19
2023-04-11T08:24:57.076Z,6.11
2023-04-11T08:27:58.666Z,6.01
2023-04-11T08:31:02.476Z,5.92
2023-04-11T08:34:06.730Z,5.83
2023-04-11T08:37:08.905Z,5.72
2023-04-11T08:40:11.672Z,5.64
2023-04-11T08:43:13.415Z,5.67
2023-04-11T08:46:15.005Z,5.68
2023-04-11T08:49:16.624Z,5.65
2023-04-11T08:52:19.434Z,5.63
2023-04-11T08:55:21.056Z,5.62
2023-04-11T08:58:23.060Z,5.64
2023-04-11T09:01:33.851Z,5.69
2023-04-11T09:04:42.909Z,5.72
2023-04-11T09:07:50.697Z,5.75
2023-04-11T09:11:01.694Z,5.80
2023-04-11T09:14:08.151Z,5.83
2023-04-11T09:17:13.605Z,5.87
2023-04-11T09:20:26.175Z,5.90
2023-04-11T09:23:27.859Z,5.90
2023-04-11T09:26:30.590Z,5.93
2023-04-11T09:29:39.207Z,5.97
2023-04-11T09:32:40.909Z,5.99
2023-04-11T09:35:42.508Z,6.00
2023-04-11T09:38:44.276Z,5.98
2023-04-11T09:41:46.178Z,5.98
2023-04-11T09:44:47.821Z,6.01
2023-04-11T09:47:51.223Z,6.04
2023-04-11T09:50:53.544Z,6.09
2023-04-11T09:53:56.229Z,6.15
2023-04-11T09:56:59.170Z,6.20
2023-04-11T10:00:14.111Z,6.27
2023-04-11T10:03:16.865Z,6.33
2023-04-11T10:06:45.691Z,6.38
2023-04-11T10:09:47.952Z,6.40
2023-04-11T10:12:50.458Z,6.46
2023-04-11T10:16:13.687Z,6.58
2023-04-11T10:19:18.579Z,6.65
2023-04-11T10:22:39.035Z,6.71
2023-04-11T10:26:00.701Z,6.72
2023-04-11T10:29:02.274Z,6.70
2023-04-11T10:32:19.908Z,6.67
2023-04-11T10:35:23.078Z,6.62
2023-04-11T10:38:38.278Z,6.55
2023-04-11T10:41:39.828Z,6.46
2023-04-11T10:44:41.408Z,6.39
2023-04-11T10:47:43.508Z,6.34
2023-04-11T10:50:45.294Z,6.29
2023-04-11T10:53:47.322Z,6.27
2023-04-11T10:56:52.227Z,6.26
2023-04-11T10:59:53.793Z,6.29
2023-04-11T11:02:55.865Z,6.41
2023-04-11T11:06:05.661Z,6.62
2023-04-11T11:09:26.378Z,6.80
2023-04-11T11:12:27.970Z,6.99
2023-04-11T11:15:30.050Z,7.11
2023-04-11T11:18:31.661Z,7.14
2023-04-11T11:21:34.758Z,7.09
2023-04-11T11:24:36.311Z,7.03
2023-04-11T11:27:38.003Z,6.96
2023-04-11T11:30:52.161Z,6.94
2023-04-11T11:33:58.226Z,6.96
2023-04-11T11:37:07.179Z,6.97
2023-04-11T11:40:13.282Z,6.96
2023-04-11T11:43:16.327Z,6.91
2023-04-11T11:46:18.076Z,6.89
2023-04-11T11:49:19.666Z,6.85
2023-04-11T11:52:41.515Z,6.83
2023-04-11T11:55:43.437Z,6.83
2023-04-11T11:58:46.079Z,6.83
2023-04-11T12:01:47.794Z,6.83
2023-04-11T12:04:49.832Z,6.86
2023-04-11T12:07:55.038Z,6.90
2023-04-11T12:10:56.688Z,6.95
2023-04-11T12:13:58.497Z,7.00
2023-04-11T12:17:00.403Z,7.08
2023-04-11T12:20:05.107Z,7.24
2023-04-11T12:23:06.714Z,7.41
2023-04-11T12:26:08.267Z,7.65
2023-04-11T12:29:09.825Z,7.83
2023-04-11T12:32:11.385Z,7.91
2023-04-11T12:35:13.401Z,7.96
2023-04-11T12:38:17.551Z,8.04
2023-04-11T12:41:32.385Z,8.07
2023-04-11T12:44:34.648Z,8.14
2023-04-11T12:47:37.117Z,8.24
2023-04-11T12:50:39.339Z,8.32
2023-04-11T12:53:41.742Z,8.40
2023-04-11T12:56:43.956Z,8.44
2023-04-11T12:59:46.134Z,8.41
2023-04-11T13:02:49.021Z,8.38
2023-04-11T13:05:51.904Z,8.45
2023-04-11T13:08:54.780Z,8.47
2023-04-11T13:11:57.893Z,8.42
2023-04-11T13:15:00.149Z,8.36
2023-04-11T13:18:01.928Z,8.29
2023-04-11T13:21:03.566Z,8.24
2023-04-11T13:24:05.340Z,8.21
2023-04-11T13:27:06.851Z,8.19
2023-04-11T13:30:10.546Z,8.23
2023-04-11T13:33:12.203Z,8.27
2023-04-11T13:36:14.293Z,8.28
2023-04-11T13:39:16.399Z,8.30
2023-04-11T13:42:18.640Z,8.33
2023-04-11T13:45:20.455Z,8.33
2023-04-11T13:48:21.990Z,8.30
2023-04-11T13:51:23.590Z,8.28
2023-04-11T13:54:26.186Z,8.24
2023-04-11T13:57:28.549Z,8.20
2023-04-11T14:00:30.213Z,8.13
2023-04-11T14:03:33.746Z,8.08
2023-04-11T14:06:36.814Z,8.12
2023-04-11T14:09:38.370Z,8.16
2023-04-11T14:12:40.022Z,8.18
2023-04-11T14:15:41.575Z,8.18
2023-04-11T14:18:43.254Z,8.17
2023-04-11T14:21:44.873Z,8.09
2023-04-11T14:24:46.543Z,8.02
2023-04-11T14:27:48.151Z,8.00
2023-04-11T14:30:50.307Z,8.00
2023-04-11T14:33:54.407Z,8.18
2023-04-11T14:36:56.045Z,8.27
2023-04-11T14:39:58.131Z,8.33
2023-04-11T14:42:59.694Z,8.33
2023-04-11T14:46:01.279Z,8.33
2023-04-11T14:49:03.212Z,8.29
2023-04-11T14:52:05.073Z,8.27
2023-04-11T14:55:07.488Z,8.29
2023-04-11T14:58:09.094Z,8.28
2023-04-11T15:01:11.173Z,8.27
2023-04-11T15:04:13.335Z,8.24
2023-04-11T15:07:14.954Z,8.21
2023-04-11T15:10:18.620Z,8.15
2023-04-11T15:13:21.914Z,8.05
2023-04-11T15:16:23.491Z,7.94
2023-04-11T15:19:25.716Z,7.85
2023-04-11T15:22:27.335Z,7.72
2023-04-11T15:25:28.889Z,7.63
2023-04-11T15:28:35.868Z,7.56
2023-04-11T15:31:38.630Z,7.50
2023-04-11T15:34:41.648Z,7.51
2023-04-11T15:37:43.309Z,7.54
2023-04-11T15:40:44.972Z,7.57
2023-04-11T15:43:46.540Z,7.59
2023-04-11T15:46:49.442Z,7.62
2023-04-11T15:49:51.125Z,7.65
2023-04-11T15:52:52.911Z,7.69
2023-04-11T15:55:54.567Z,7.79
2023-04-11T15:58:56.500Z,7.85
2023-04-11T16:01:58.143Z,7.85
2023-04-11T16:05:01.370Z,7.81
2023-04-11T16:08:03.311Z,7.75
2023-04-11T16:11:05.084Z,7.67
2023-04-11T16:14:06.844Z,7.58
2023-04-11T16:17:08.468Z,7.52
2023-04-11T16:20:14.107Z,7.50
2023-04-11T16:23:15.959Z,7.52
2023-04-11T16:26:17.581Z,7.54
2023-04-11T16:29:19.914Z,7.61
2023-04-11T16:32:22.559Z,7.65
2023-04-11T16:35:25.154Z,7.69
2023-04-11T16:38:27.491Z,7.72
2023-04-11T16:41:29.045Z,7.76
2023-04-11T16:44:31.257Z,7.78
2023-04-11T16:47:32.954Z,7.79
2023-04-11T16:50:35.298Z,7.82
2023-04-11T16:53:37.606Z,7.83
2023-04-11T16:56:39.213Z,7.82
2023-04-11T16:59:40.974Z,7.80
2023-04-11T17:02:42.725Z,7.80
2023-04-11T17:05:48.010Z,7.80
2023-04-11T17:08:49.956Z,7.78
2023-04-11T17:11:51.600Z,7.75
2023-04-11T17:14:53.192Z,7.74
2023-04-11T17:17:54.804Z,7.73
2023-04-11T17:20:56.519Z,7.75
2023-04-11T17:23:58.244Z,7.75
2023-04-11T17:26:59.865Z,7.75
2023-04-11T17:30:02.241Z,7.75
2023-04-11T17:33:04.224Z,7.73
2023-04-11T17:36:06.457Z,7.71
2023-04-11T17:39:09.818Z,7.70
2023-04-11T17:42:13.755Z,7.68
2023-04-11T17:45:18.532Z,7.66
2023-04-11T17:48:22.983Z,7.65
2023-04-11T17:51:24.542Z,7.63
2023-04-11T17:54:26.161Z,7.60
2023-04-11T17:57:28.470Z,7.58
2023-04-11T18:00:30.466Z,7.53
2023-04-11T18:03:34.926Z,7.46
2023-04-11T18:06:36.816Z,7.40
2023-04-11T18:09:38.419Z,7.32
2023-04-11T18:12:40.463Z,7.22
2023-04-11T18:15:42.417Z,7.14
2023-04-11T18:18:44.852Z,7.04
2023-04-11T18:21:48.860Z,7.22
2023-04-11T18:24:54.009Z,7.10
2023-04-11T18:27:55.651Z,7.03
2023-04-11T18:30:57.266Z,6.94
2023-04-11T18:33:59.444Z,6.85
2023-04-11T18:37:01.663Z,6.73
2023-04-11T18:40:14.011Z,6.64
2023-04-11T18:43:15.832Z,6.56
2023-04-11T18:46:17.494Z,6.50
2023-04-11T18:49:19.167Z,6.40
2023-04-11T18:52:20.855Z,6.37
2023-04-11T18:55:22.725Z,6.31
2023-04-11T18:58:26.044Z,6.25
2023-04-11T19:01:28.320Z,6.23
2023-04-11T19:04:30.260Z,6.21
2023-04-11T19:07:32.028Z,6.21
2023-04-11T19:10:33.550Z,6.19
2023-04-11T19:13:35.110Z,6.16
2023-04-11T19:16:36.886Z,6.13
2023-04-11T19:19:38.531Z,6.08
2023-04-11T19:22:41.108Z,6.03
2023-04-11T19:25:42.973Z,6.01
2023-04-11T19:28:45.356Z,6.00
2023-04-11T19:31:46.984Z,5.96
2023-04-11T19:34:49.672Z,5.91
2023-04-11T19:37:51.400Z,5.85
2023-04-11T19:40:53.070Z,5.78
2023-04-11T19:43:55.070Z,5.71
2023-04-11T19:46:57.408Z,5.65
2023-04-11T19:50:01.083Z,5.58
2023-04-11T19:53:03.352Z,5.53
2023-04-11T19:56:07.133Z,5.49
2023-04-11T19:59:08.670Z,5.46
2023-04-11T20:02:10.311Z,5.42
2023-04-11T20:05:17.382Z,5.37
2023-04-11T20:08:21.554Z,5.29
2023-04-11T20:11:23.952Z,5.24
2023-04-11T20:14:25.919Z,5.19
2023-04-11T20:17:27.565Z,5.10
2023-04-11T20:20:29.489Z,5.01
2023-04-11T20:23:33.703Z,4.97
2023-04-11T20:26:35.513Z,4.91
2023-04-11T20:29:38.362Z,4.83
2023-04-11T20:32:41.344Z,4.76
2023-04-11T20:35:43.256Z,4.67
2023-04-11T20:38:44.870Z,4.62
2023-04-11T20:41:46.684Z,4.54
2023-04-11T20:44:48.566Z,4.48
2023-04-11T20:47:50.812Z,4.44
2023-04-11T20:50:55.949Z,4.40
2023-04-11T20:53:57.673Z,4.33
2023-04-11T20:56:59.498Z,4.21
2023-04-11T21:00:02.735Z,4.13
2023-04-11T21:03:04.419Z,4.09
2023-04-11T21:06:07.653Z,4.02
2023-04-11T21:09:09.561Z,3.97
2023-04-11T21:12:11.356Z,3.92
2023-04-11T21:15:12.931Z,3.85
2023-04-11T21:18:14.477Z,3.78
2023-04-11T21:21:16.430Z,3.77
2023-04-11T21:24:17.977Z,4.27
2023-04-11T21:27:19.701Z,4.43
2023-04-11T21:30:21.436Z,4.38
2023-04-11T21:33:23.040Z,4.31
2023-04-11T21:36:24.601Z,4.17
2023-04-11T21:39:26.350Z,4.04
2023-04-11T21:42:27.952Z,3.94
2023-04-11T21:45:29.929Z,3.86
2023-04-11T21:48:31.461Z,3.78
2023-04-11T21:51:33.025Z,3.70
2023-04-11T21:54:35.014Z,3.65
2023-04-11T21:57:36.545Z,3.58
2023-04-11T22:00:38.256Z,3.53
2023-04-11T22:03:42.863Z,3.49
2023-04-11T22:06:47.763Z,3.44
2023-04-11T22:09:49.641Z,3.40
2023-04-11T22:12:53.978Z,3.33
2023-04-11T22:16:05.258Z,3.29
2023-04-11T22:19:07.083Z,3.22
2023-04-11T22:22:08.970Z,3.17
2023-04-11T22:25:10.595Z,3.10
2023-04-11T22:28:18.316Z,3.04
2023-04-11T22:31:23.118Z,2.96
2023-04-11T22:34:25.721Z,2.91
2023-04-11T22:37:27.308Z,2.82
2023-04-11T22:40:28.874Z,2.72
2023-04-11T22:43:30.733Z,2.65
2023-04-11T22:46:34.120Z,2.59
2023-04-11T22:49:42.188Z,2.53
2023-04-11T22:52:43.806Z,2.47
2023-04-11T22:55:45.352Z,2.40
2023-04-11T22:58:47.006Z,2.35
2023-04-11T23:01:48.551Z,2.31
2023-04-11T23:04:50.297Z,2.28
2023-04-11T23:07:52.008Z,2.23
2023-04-11T23:10:53.561Z,2.19
2023-04-11T23:13:55.342Z,2.16
2023-04-11T23:16:57.195Z,2.14
2023-04-11T23:20:01.856Z,2.11
2023-04-11T23:23:04.231Z,2.09
2023-04-11T23:26:06.117Z,2.07
2023-04-11T23:29:08.668Z,2.06
2023-04-11T23:32:10.288Z,2.05
2023-04-11T23:35:11.898Z,2.05
2023-04-11T23:38:13.422Z,2.03
2023-04-11T23:41:15.013Z,2.04
2023-04-11T23:44:16.617Z,2.05
2023-04-11T23:47:18.172Z,2.05
2023-04-11T23:50:19.974Z,2.06
2023-04-11T23:53:22.040Z,2.08
2023-04-11T23:56:23.971Z,2.09
2023-04-11T23:59:25.727Z,2.11
